createdAt,value
2022-11-13T06:16:01.577Z,1019.13
2022-11-13T06:26:01.599Z,1018.93
2022-11-13T06:36:01.606Z,1018.96
2022-11-13T06:46:01.700Z,1019.08
2022-11-13T06:56:01.733Z,1019.12
2022-11-13T07:06:01.720Z,1019.20
2022-11-13T07:16:09.428Z,1019.12
2022-11-13T07:26:01.816Z,1019.11
2022-11-13T07:36:01.631Z,1019.18
2022-11-13T07:46:01.702Z,1019.14
2022-11-13T07:56:01.771Z,1019.08
2022-11-13T08:06:01.653Z,1018.98
2022-11-13T08:16:01.707Z,1019.03
2022-11-13T08:26:01.751Z,1019.11
2022-11-13T08:36:01.885Z,1019.19
2022-11-13T08:46:01.709Z,1019.25
2022-11-13T08:56:01.687Z,1019.23
2022-11-13T09:06:01.747Z,1019.29
2022-11-13T09:16:01.734Z,1019.20
2022-11-13T09:26:01.669Z,1019.16
2022-11-13T09:36:01.696Z,1019.11
2022-11-13T09:46:01.740Z,1019.10
2022-11-13T09:56:01.646Z,1018.87
2022-11-13T10:06:01.693Z,1018.78
2022-11-13T10:16:01.779Z,1018.58
2022-11-13T10:26:01.630Z,1018.43
2022-11-13T10:36:01.650Z,1018.29
2022-11-13T10:46:01.652Z,1018.17
2022-11-13T10:56:01.904Z,1018.08
2022-11-13T11:06:01.661Z,1018.02
2022-11-13T11:16:01.641Z,1017.98
2022-11-13T11:26:01.752Z,1017.73
2022-11-13T11:36:01.746Z,1017.69
2022-11-13T11:46:01.653Z,1017.62
2022-11-13T11:56:01.769Z,1017.55
2022-11-13T12:06:01.766Z,1017.36
2022-11-13T12:16:01.927Z,1017.19
2022-11-13T12:26:01.788Z,1017.00
2022-11-13T12:36:01.854Z,1016.93
2022-11-13T12:46:01.883Z,1016.96
2022-11-13T12:56:02.015Z,1017.04
2022-11-13T13:06:01.842Z,1016.86
2022-11-13T13:16:01.734Z,1016.83
2022-11-13T13:26:01.945Z,1016.84
2022-11-13T13:36:01.983Z,1016.75
2022-11-13T13:46:01.967Z,1016.65
2022-11-13T13:56:01.882Z,1016.39
2022-11-13T14:06:03.968Z,1016.44
2022-11-13T14:16:02.074Z,1016.19
2022-11-13T14:26:02.162Z,1016.22
2022-11-13T14:36:02.127Z,1016.37
2022-11-13T14:46:01.976Z,1016.35
2022-11-13T14:56:01.960Z,1016.15
2022-11-13T15:06:02.177Z,1016.07
2022-11-13T15:16:01.962Z,1015.98
2022-11-13T15:26:01.923Z,1015.90
2022-11-13T15:36:01.999Z,1015.75
2022-11-13T15:46:01.968Z,1015.74
2022-11-13T15:56:02.119Z,1015.87
2022-11-13T16:06:02.063Z,1015.68
2022-11-13T16:16:01.960Z,1015.54
2022-11-13T16:26:02.023Z,1015.50
2022-11-13T16:36:01.967Z,1015.56
2022-11-13T16:46:01.938Z,1015.56
2022-11-13T16:56:02.028Z,1015.42
2022-11-13T17:06:02.097Z,1015.31
2022-11-13T17:16:02.042Z,1015.21
2022-11-13T17:26:02.143Z,1015.13
2022-11-13T17:36:02.091Z,1015.12
2022-11-13T17:46:02.132Z,1015.18
2022-11-13T17:56:02.321Z,1015.20
2022-11-13T18:06:02.438Z,1015.31
2022-11-13T18:16:02.352Z,1015.29
2022-11-13T18:26:02.386Z,1015.32
2022-11-13T18:36:02.768Z,1015.50
2022-11-13T18:46:02.333Z,1015.30
2022-11-13T18:56:02.424Z,1015.20
2022-11-13T19:06:02.572Z,1015.11
2022-11-13T19:16:02.612Z,1015.13
